Time,TemperatureF,DewpointF,PressureIn,WindDirection,WindDirectionDegrees,WindSpeedMPH,WindSpeedGustMPH,Humidity,HourlyPrecipIn,Conditions,Clouds,dailyrainin,SoftwareType,DateUTC
2013-01-14 00:01:00,22.6,15.6,30.18,West,270,0.0,0.0,74,0.00,RA,,0.00,WeatherDisplay:10.37,2013-01-14 05:01:00,
2013-01-14 00:02:00,22.6,15.6,30.18,West,270,0.0,0.0,74,0.00,RA,,0.00,WeatherDisplay:10.37,2013-01-14 05:02:00,
2013-01-14 00:03:00,22.6,15.6,30.18,West,270,0.0,0.0,74,0.00,RA,,0.00,WeatherDisplay:10.37,2013-01-14 05:03:00,
2013-01-14 00:08:00,22.6,15.3,30.19,West,270,0.0,0.0,73,0.00,RA,,0.00,WeatherDisplay:10.37,2013-01-14 05:08:00,
2013-01-14 00:13:00,22.5,15.1,30.19,West,270,0.0,0.0,73,0.00,CLR,,0.00,WeatherDisplay:10.37,2013-01-14 05:13:00,
2013-01-14 00:18:00,22.5,15.4,30.20,West,270,0.0,0.0,74,0.00,CLR,,0.00,WeatherDisplay:10.37,2013-01-14 05:18:00,
2013-01-14 00:23:00,22.6,15.6,30.21,West,270,0.0,0.0,74,0.00,CLR,,0.00,WeatherDisplay:10.37,2013-01-14 05:23:00,
2013-01-14 00:28:00,22.6,15.9,30.21,West,270,0.0,0.0,75,0.00,CLR,,0.00,WeatherDisplay:10.37,2013-01-14 05:28:00,
2013-01-14 00:33:00,22.6,15.9,30.21,West,270,0.0,0.0,75,0.00,CLR,,0.00,WeatherDisplay:10.37,2013-01-14 05:33:00,
2013-01-14 00:38:00,22.6,15.9,30.22,West,270,0.0,0.0,75,0.00,CLR,,0.00,WeatherDisplay:10.37,2013-01-14 05:38:00,
2013-01-14 00:43:00,22.6,15.9,30.22,West,270,0.0,0.0,75,0.00,CLR,,0.00,WeatherDisplay:10.37,2013-01-14 05:43:00,
2013-01-14 00:48:00,22.5,15.7,30.22,West,270,0.0,0.0,75,0.00,CLR,,0.00,WeatherDisplay:10.37,2013-01-14 05:48:00,
2013-01-14 00:53:00,22.5,15.7,30.23,West,270,0.0,0.0,75,0.00,CLR,,0.00,WeatherDisplay:10.37,2013-01-14 05:53:00,
2013-01-14 00:58:00,22.5,15.4,30.23,West,270,0.0,0.0,74,0.00,CLR,,0.00,WeatherDisplay:10.37,2013-01-14 05:58:00,
2013-01-14 01:03:00,22.3,15.2,30.23,West,270,0.0,0.0,74,0.00,CLR,,0.00,WeatherDisplay:10.37,2013-01-14 06:03:00,
2013-01-14 01:08:00,22.3,15.2,30.23,West,270,0.0,0.0,74,0.00,CLR,,0.00,WeatherDisplay:10.37,2013-01-14 06:08:00,
2013-01-14 01:13:00,22.3,15.2,30.24,West,270,0.0,0.0,74,0.00,CLR,,0.00,WeatherDisplay:10.37,2013-01-14 06:13:00,
2013-01-14 01:18:00,22.3,15.2,30.25,West,270,0.0,0.0,74,0.00,CLR,,0.00,WeatherDisplay:10.37,2013-01-14 06:18:00,
2013-01-14 01:23:00,22.3,15.2,30.25,West,270,0.0,0.0,74,0.00,CLR,,0.00,WeatherDisplay:10.37,2013-01-14 06:23:00,
2013-01-14 01:28:00,22.3,14.9,30.24,West,270,0.0,0.0,73,0.00,CLR,,0.00,WeatherDisplay:10.37,2013-01-14 06:28:00,
2013-01-14 01:33:00,22.3,14.9,30.24,West,270,0.0,0.0,73,0.00,CLR,,0.00,WeatherDisplay:10.37,2013-01-14 06:33:00,
2013-01-14 01:38:00,22.3,15.2,30.24,West,270,0.0,0.0,74,0.00,CLR,,0.00,WeatherDisplay:10.37,2013-01-14 06:38:00,
2013-01-14 01:43:00,22.1,14.8,30.24,West,270,0.0,0.0,73,0.00,CLR,,0.00,WeatherDisplay:10.37,2013-01-14 06:43:00,
2013-01-14 01:48:00,22.1,14.8,30.25,West,270,0.0,0.0,73,0.00,CLR,,0.00,WeatherDisplay:10.37,2013-01-14 06:48:00,
2013-01-14 01:53:00,21.9,14.3,30.25,West,270,0.0,0.0,72,0.00,CLR,,0.00,WeatherDisplay:10.37,2013-01-14 06:53:00,
2013-01-14 01:58:00,21.9,14.0,30.25,West,270,0.0,0.0,71,0.00,CLR,,0.00,WeatherDisplay:10.37,2013-01-14 06:58:00,
2013-01-14 02:03:00,21.9,14.0,30.26,West,270,0.0,0.0,71,0.00,CLR,,0.00,WeatherDisplay:10.37,2013-01-14 07:03:00,
2013-01-14 02:08:00,21.9,14.3,30.26,West,270,0.0,0.0,72,0.00,CLR,,0.00,WeatherDisplay:10.37,2013-01-14 07:08:00,
2013-01-14 02:13:00,21.7,13.8,30.26,West,270,0.0,0.0,71,0.00,CLR,,0.00,WeatherDisplay:10.37,2013-01-14 07:13:00,
2013-01-14 02:18:00,21.7,13.8,30.26,West,270,0.0,0.0,71,0.00,CLR,,0.00,WeatherDisplay:10.37,2013-01-14 07:18:00,
2013-01-14 02:23:00,21.6,13.9,30.27,West,270,0.0,0.0,72,0.00,CLR,,0.00,WeatherDisplay:10.37,2013-01-14 07:23:00,
2013-01-14 02:28:00,21.7,14.4,30.27,West,270,0.0,0.0,73,0.00,CLR,,0.00,WeatherDisplay:10.37,2013-01-14 07:28:00,
2013-01-14 02:33:00,21.7,14.4,30.27,West,270,0.0,0.0,73,0.00,CLR,,0.00,WeatherDisplay:10.37,2013-01-14 07:33:00,
2013-01-14 02:38:00,21.7,14.4,30.27,West,270,0.0,0.0,73,0.00,CLR,,0.00,WeatherDisplay:10.37,2013-01-14 07:38:00,
2013-01-14 02:44:00,21.7,14.7,30.28,West,270,0.0,0.0,74,0.00,CLR,,0.00,WeatherDisplay:10.37,2013-01-14 07:44:00,
2013-01-14 02:49:00,21.7,14.7,30.29,West,270,0.0,0.0,74,0.00,CLR,,0.00,WeatherDisplay:10.37,2013-01-14 07:49:00,
2013-01-14 02:54:00,21.6,14.6,30.30,West,270,0.0,0.0,74,0.00,CLR,,0.00,WeatherDisplay:10.37,2013-01-14 07:54:00,
2013-01-14 02:59:00,21.7,14.7,30.29,West,270,0.0,0.0,74,0.00,CLR,,0.00,WeatherDisplay:10.37,2013-01-14 07:59:00,
2013-01-14 03:04:00,21.6,14.6,30.30,West,270,0.0,0.0,74,0.00,CLR,,0.00,WeatherDisplay:10.37,2013-01-14 08:04:00,
2013-01-14 03:09:00,21.4,14.1,30.30,West,270,0.0,0.0,73,0.00,CLR,,0.00,WeatherDisplay:10.37,2013-01-14 08:09:00,
2013-01-14 03:14:00,21.4,14.1,30.31,West,270,0.0,0.0,73,0.00,CLR,,0.00,WeatherDisplay:10.37,2013-01-14 08:14:00,
2013-01-14 03:19:00,21.4,14.1,30.31,West,270,0.0,0.0,73,0.00,CLR,,0.00,WeatherDisplay:10.37,2013-01-14 08:19:00,
2013-01-14 03:24:00,21.4,14.1,30.31,West,270,0.0,0.0,73,0.00,CLR,,0.00,WeatherDisplay:10.37,2013-01-14 08:24:00,
2013-01-14 03:29:00,21.4,14.1,30.31,West,270,0.0,0.0,73,0.00,CLR,,0.00,WeatherDisplay:10.37,2013-01-14 08:29:00,
2013-01-14 03:34:00,21.4,13.8,30.31,West,270,0.0,0.0,72,0.00,CLR,,0.00,WeatherDisplay:10.37,2013-01-14 08:34:00,
2013-01-14 03:39:00,21.6,14.2,30.32,West,270,0.0,0.0,73,0.00,CLR,,0.00,WeatherDisplay:10.37,2013-01-14 08:39:00,
2013-01-14 03:44:00,21.6,14.2,30.32,West,270,0.0,0.0,73,0.00,CLR,,0.00,WeatherDisplay:10.37,2013-01-14 08:44:00,
2013-01-14 03:49:00,21.6,14.2,30.32,West,270,0.0,0.0,73,0.00,CLR,,0.00,WeatherDisplay:10.37,2013-01-14 08:49:00,
2013-01-14 03:54:00,21.4,14.1,30.33,West,270,0.0,0.0,73,0.00,CLR,,0.00,WeatherDisplay:10.37,2013-01-14 08:54:00,
2013-01-14 03:59:00,21.4,14.1,30.33,West,270,0.0,0.0,73,0.00,CLR,,0.00,WeatherDisplay:10.37,2013-01-14 08:59:00,
2013-01-14 04:04:00,21.4,14.4,30.33,West,270,0.0,0.0,74,0.00,CLR,,0.00,WeatherDisplay:10.37,2013-01-14 09:04:00,
2013-01-14 04:09:00,21.4,14.4,30.34,West,270,0.0,0.0,74,0.00,CLR,,0.00,WeatherDisplay:10.37,2013-01-14 09:09:00,
2013-01-14 04:14:00,21.4,14.4,30.34,West,270,0.0,0.0,74,0.00,CLR,,0.00,WeatherDisplay:10.37,2013-01-14 09:14:00,
2013-01-14 04:19:00,21.4,14.4,30.34,West,270,0.0,0.0,74,0.00,CLR,,0.00,WeatherDisplay:10.37,2013-01-14 09:19:00,
2013-01-14 04:24:00,21.4,14.4,30.34,West,270,0.0,0.0,74,0.00,CLR,,0.00,WeatherDisplay:10.37,2013-01-14 09:24:00,
2013-01-14 04:29:00,21.4,14.4,30.34,West,270,0.0,0.0,74,0.00,CLR,,0.00,WeatherDisplay:10.37,2013-01-14 09:29:00,
2013-01-14 04:34:00,21.6,14.6,30.35,West,270,0.0,0.0,74,0.00,CLR,,0.00,WeatherDisplay:10.37,2013-01-14 09:34:00,
2013-01-14 04:39:00,21.6,14.9,30.35,West,270,0.0,0.0,75,0.00,CLR,,0.00,WeatherDisplay:10.37,2013-01-14 09:39:00,
2013-01-14 04:44:00,21.6,14.6,30.35,West,270,0.0,0.0,74,0.00,CLR,,0.00,WeatherDisplay:10.37,2013-01-14 09:44:00,
2013-01-14 04:49:00,21.4,14.4,30.35,West,270,0.0,0.0,74,0.00,CLR,,0.00,WeatherDisplay:10.37,2013-01-14 09:49:00,
2013-01-14 04:54:00,21.4,14.4,30.35,West,270,0.0,0.0,74,0.00,CLR,,0.00,WeatherDisplay:10.37,2013-01-14 09:54:00,
2013-01-14 04:59:00,21.2,13.9,30.36,West,270,0.0,0.0,73,0.00,CLR,,0.00,WeatherDisplay:10.37,2013-01-14 09:59:00,
2013-01-14 05:04:00,21.2,13.9,30.35,West,270,0.0,0.0,73,0.00,CLR,,0.00,WeatherDisplay:10.37,2013-01-14 10:04:00,
2013-01-14 05:09:00,21.2,13.9,30.35,West,270,0.0,0.0,73,0.00,CLR,,0.00,WeatherDisplay:10.37,2013-01-14 10:09:00,
2013-01-14 05:14:00,21.4,14.1,30.36,West,270,0.0,0.0,73,0.00,CLR,,0.00,WeatherDisplay:10.37,2013-01-14 10:14:00,
2013-01-14 05:19:00,21.4,14.1,30.36,West,270,0.0,0.0,73,0.00,CLR,,0.00,WeatherDisplay:10.37,2013-01-14 10:19:00,
2013-01-14 05:24:00,21.4,14.4,30.36,West,270,0.0,0.0,74,0.00,CLR,,0.00,WeatherDisplay:10.37,2013-01-14 10:24:00,
2013-01-14 05:29:00,21.4,14.4,30.36,West,270,0.0,0.0,74,0.00,CLR,,0.00,WeatherDisplay:10.37,2013-01-14 10:29:00,
2013-01-14 05:34:00,21.6,14.6,30.36,West,270,0.0,0.0,74,0.00,CLR,,0.00,WeatherDisplay:10.37,2013-01-14 10:34:00,
2013-01-14 05:39:00,21.7,14.7,30.36,West,270,0.0,0.0,74,0.00,CLR,,0.00,WeatherDisplay:10.37,2013-01-14 10:39:00,
2013-01-14 05:44:00,21.7,14.7,30.36,West,270,0.0,0.0,74,0.00,CLR,,0.00,WeatherDisplay:10.37,2013-01-14 10:44:00,
2013-01-14 05:49:00,21.7,14.7,30.36,West,270,0.0,0.0,74,0.00,CLR,,0.00,WeatherDisplay:10.37,2013-01-14 10:49:00,
2013-01-14 05:54:00,21.6,14.6,30.36,West,270,0.0,0.0,74,0.00,CLR,,0.00,WeatherDisplay:10.37,2013-01-14 10:54:00,
2013-01-14 05:59:00,21.7,14.7,30.36,West,270,0.0,0.0,74,0.00,CLR,,0.00,WeatherDisplay:10.37,2013-01-14 10:59:00,
2013-01-14 06:04:00,21.9,14.9,30.36,West,270,0.0,0.0,74,0.00,CLR,,0.00,WeatherDisplay:10.37,2013-01-14 11:04:00,
2013-01-14 06:09:00,21.7,14.7,30.37,West,270,0.0,0.0,74,0.00,CLR,,0.00,WeatherDisplay:10.37,2013-01-14 11:09:00,
2013-01-14 06:14:00,21.7,15.0,30.37,West,270,0.0,0.0,75,0.00,CLR,,0.00,WeatherDisplay:10.37,2013-01-14 11:14:00,
2013-01-14 06:19:00,21.9,15.2,30.37,West,270,0.0,0.0,75,0.00,CLR,,0.00,WeatherDisplay:10.37,2013-01-14 11:19:00,
2013-01-14 06:24:00,21.9,15.2,30.38,West,270,0.0,0.0,75,0.00,CLR,,0.00,WeatherDisplay:10.37,2013-01-14 11:24:00,
2013-01-14 06:29:00,21.7,14.7,30.38,West,270,0.0,0.0,74,0.00,CLR,,0.00,WeatherDisplay:10.37,2013-01-14 11:29:00,
2013-01-14 06:34:00,21.7,14.7,30.38,West,270,0.0,0.0,74,0.00,CLR,,0.00,WeatherDisplay:10.37,2013-01-14 11:34:00,
2013-01-14 06:39:00,21.7,14.7,30.39,West,270,0.0,0.0,74,0.00,CLR,,0.00,WeatherDisplay:10.37,2013-01-14 11:39:00,
2013-01-14 06:44:00,21.9,14.9,30.39,West,270,0.0,0.0,74,0.00,CLR,,0.00,WeatherDisplay:10.37,2013-01-14 11:44:00,
2013-01-14 06:49:00,21.9,14.9,30.39,West,270,0.0,0.0,74,0.00,CLR,,0.00,WeatherDisplay:10.37,2013-01-14 11:49:00,
2013-01-14 06:54:00,21.9,14.9,30.39,West,270,0.0,0.0,74,0.00,CLR,,0.00,WeatherDisplay:10.37,2013-01-14 11:54:00,
2013-01-14 06:59:00,21.9,14.9,30.40,West,270,0.0,0.0,74,0.00,CLR,,0.00,WeatherDisplay:10.37,2013-01-14 11:59:00,
2013-01-14 07:04:00,21.9,14.9,30.40,West,270,0.0,0.0,74,0.00,CLR,,0.00,WeatherDisplay:10.37,2013-01-14 12:04:00,
2013-01-14 07:09:00,22.1,15.1,30.40,West,270,0.0,0.0,74,0.00,CLR,,0.00,WeatherDisplay:10.37,2013-01-14 12:09:00,
2013-01-14 07:14:00,22.1,14.8,30.41,West,270,0.0,0.0,73,0.00,CLR,,0.00,WeatherDisplay:10.37,2013-01-14 12:14:00,
2013-01-14 07:19:00,22.1,14.8,30.41,West,270,0.0,0.0,73,0.00,CLR,,0.00,WeatherDisplay:10.37,2013-01-14 12:19:00,
2013-01-14 07:24:00,22.1,14.8,30.41,West,270,0.0,0.0,73,0.00,CLR,,0.00,WeatherDisplay:10.37,2013-01-14 12:24:00,
2013-01-14 07:29:00,22.3,14.9,30.42,West,270,0.0,0.0,73,0.00,CLR,,0.00,WeatherDisplay:10.37,2013-01-14 12:29:00,
2013-01-14 07:34:00,22.3,14.9,30.42,West,270,0.0,0.0,73,0.00,CLR,,0.00,WeatherDisplay:10.37,2013-01-14 12:34:00,
2013-01-14 07:39:00,22.3,14.6,30.43,West,270,0.0,0.0,72,0.00,CLR,,0.00,WeatherDisplay:10.37,2013-01-14 12:39:00,
2013-01-14 07:44:00,22.3,14.3,30.43,West,270,0.0,0.0,71,0.00,CLR,,0.00,WeatherDisplay:10.37,2013-01-14 12:44:00,
2013-01-14 07:49:00,22.3,14.0,30.44,West,270,0.0,0.0,70,0.00,CLR,,0.00,WeatherDisplay:10.37,2013-01-14 12:49:00,
2013-01-14 07:54:00,22.3,13.6,30.44,West,270,0.0,0.0,69,0.00,CLR,,0.00,WeatherDisplay:10.37,2013-01-14 12:54:00,
2013-01-14 07:59:00,22.1,13.5,30.44,West,270,0.0,0.0,69,0.00,CLR,,0.00,WeatherDisplay:10.37,2013-01-14 12:59:00,
2013-01-14 08:04:00,22.1,13.5,30.45,West,270,0.0,0.0,69,0.00,CLR,,0.00,WeatherDisplay:10.37,2013-01-14 13:04:00,
2013-01-14 08:09:00,22.1,13.1,30.45,West,270,0.0,0.0,68,0.00,CLR,,0.00,WeatherDisplay:10.37,2013-01-14 13:09:00,
2013-01-14 08:14:00,22.1,13.1,30.45,West,270,0.0,0.0,68,0.00,CLR,,0.00,WeatherDisplay:10.37,2013-01-14 13:14:00,
2013-01-14 08:19:00,22.1,13.5,30.46,West,270,0.0,0.0,69,0.00,CLR,,0.00,WeatherDisplay:10.37,2013-01-14 13:19:00,
2013-01-14 08:24:00,22.1,13.5,30.46,West,270,0.0,0.0,69,0.00,CLR,,0.00,WeatherDisplay:10.37,2013-01-14 13:24:00,
2013-01-14 08:29:00,22.3,14.0,30.47,West,270,0.0,0.0,70,0.00,CLR,,0.00,WeatherDisplay:10.37,2013-01-14 13:29:00,
2013-01-14 08:34:00,22.3,14.0,30.47,West,270,0.0,0.0,70,0.00,CLR,,0.00,WeatherDisplay:10.37,2013-01-14 13:34:00,
2013-01-14 08:39:00,22.3,14.0,30.47,West,270,0.0,0.0,70,0.00,CLR,,0.00,WeatherDisplay:10.37,2013-01-14 13:39:00,
2013-01-14 08:44:00,22.1,13.8,30.47,West,270,0.0,0.0,70,0.00,CLR,,0.00,WeatherDisplay:10.37,2013-01-14 13:44:00,
2013-01-14 08:49:00,22.1,13.5,30.48,West,270,0.0,0.0,69,0.00,CLR,,0.00,WeatherDisplay:10.37,2013-01-14 13:49:00,
2013-01-14 08:54:00,22.1,13.5,30.48,West,270,0.0,0.0,69,0.00,CLR,,0.00,WeatherDisplay:10.37,2013-01-14 13:54:00,
2013-01-14 08:59:00,22.1,13.8,30.48,West,270,0.0,0.0,70,0.00,CLR,,0.00,WeatherDisplay:10.37,2013-01-14 13:59:00,
2013-01-14 09:04:00,22.1,13.5,30.48,West,270,0.0,0.0,69,0.00,CLR,,0.00,WeatherDisplay:10.37,2013-01-14 14:04:00,
2013-01-14 09:09:00,22.1,13.5,30.48,West,270,0.0,0.0,69,0.00,CLR,,0.00,WeatherDisplay:10.37,2013-01-14 14:09:00,
2013-01-14 09:14:00,22.3,13.6,30.48,West,270,0.0,0.0,69,0.00,CLR,,0.00,WeatherDisplay:10.37,2013-01-14 14:14:00,
2013-01-14 09:19:00,22.3,14.0,30.48,West,270,0.0,0.0,70,0.00,CLR,,0.00,WeatherDisplay:10.37,2013-01-14 14:19:00,
2013-01-14 09:24:00,22.5,14.1,30.48,West,270,0.0,0.0,70,0.00,CLR,,0.00,WeatherDisplay:10.37,2013-01-14 14:24:00,
2013-01-14 09:29:00,22.5,14.1,30.48,West,270,0.0,0.0,70,0.00,CLR,,0.00,WeatherDisplay:10.37,2013-01-14 14:29:00,
2013-01-14 09:34:00,22.5,14.1,30.47,West,270,0.0,0.0,70,0.00,CLR,,0.00,WeatherDisplay:10.37,2013-01-14 14:34:00,
2013-01-14 09:39:00,22.5,14.5,30.48,West,270,0.0,0.0,71,0.00,CLR,,0.00,WeatherDisplay:10.37,2013-01-14 14:39:00,
2013-01-14 09:44:00,22.6,14.6,30.48,West,270,0.0,0.0,71,0.00,CLR,,0.00,WeatherDisplay:10.37,2013-01-14 14:44:00,
2013-01-14 09:49:00,22.6,14.3,30.48,West,270,0.0,0.0,70,0.00,CLR,,0.00,WeatherDisplay:10.37,2013-01-14 14:49:00,
2013-01-14 09:54:00,22.6,14.3,30.48,West,270,0.0,0.0,70,0.00,CLR,,0.00,WeatherDisplay:10.37,2013-01-14 14:54:00,
2013-01-14 09:59:00,22.6,14.0,30.47,West,270,0.0,0.0,69,0.00,CLR,,0.00,WeatherDisplay:10.37,2013-01-14 14:59:00,
2013-01-14 10:04:00,22.8,14.5,30.47,West,270,0.0,0.0,70,0.00,CLR,,0.00,WeatherDisplay:10.37,2013-01-14 15:04:00,
2013-01-14 10:09:00,23.0,14.0,30.47,West,270,0.0,0.0,68,0.00,CLR,,0.00,WeatherDisplay:10.37,2013-01-14 15:09:00,
2013-01-14 10:14:00,23.0,14.0,30.47,West,270,0.0,0.0,68,0.00,CLR,,0.00,WeatherDisplay:10.37,2013-01-14 15:14:00,
2013-01-14 10:19:00,23.2,14.2,30.48,West,270,0.0,0.0,68,0.00,CLR,,0.00,WeatherDisplay:10.37,2013-01-14 15:19:00,
2013-01-14 10:24:00,23.2,14.2,30.48,West,270,0.0,0.0,68,0.00,CLR,,0.00,WeatherDisplay:10.37,2013-01-14 15:24:00,
2013-01-14 10:29:00,23.0,14.0,30.48,West,270,0.0,0.0,68,0.00,CLR,,0.00,WeatherDisplay:10.37,2013-01-14 15:29:00,
2013-01-14 10:34:00,23.0,14.0,30.47,West,270,0.0,0.0,68,0.00,CLR,,0.00,WeatherDisplay:10.37,2013-01-14 15:34:00,
2013-01-14 10:39:00,23.4,14.4,30.47,West,270,0.0,0.0,68,0.00,CLR,,0.00,WeatherDisplay:10.37,2013-01-14 15:39:00,
2013-01-14 10:44:00,23.4,14.4,30.47,West,270,0.0,0.0,68,0.00,CLR,,0.00,WeatherDisplay:10.37,2013-01-14 15:44:00,
2013-01-14 10:49:00,23.5,14.5,30.47,West,270,0.0,0.0,68,0.00,CLR,,0.00,WeatherDisplay:10.37,2013-01-14 15:49:00,
2013-01-14 10:54:00,24.1,15.4,30.47,West,270,0.0,0.0,69,0.00,CLR,,0.00,WeatherDisplay:10.37,2013-01-14 15:54:00,
2013-01-14 10:59:00,24.1,15.4,30.47,West,270,0.0,0.0,69,0.00,CLR,,0.00,WeatherDisplay:10.37,2013-01-14 15:59:00,
2013-01-14 11:04:00,24.1,15.0,30.46,West,270,0.0,0.0,68,0.00,CLR,,0.00,WeatherDisplay:10.37,2013-01-14 16:04:00,
2013-01-14 11:09:00,23.9,14.9,30.46,West,270,0.0,0.0,68,0.00,CLR,,0.00,WeatherDisplay:10.37,2013-01-14 16:09:00,
2013-01-14 11:14:00,23.9,14.9,30.46,West,270,0.0,0.0,68,0.00,CLR,,0.00,WeatherDisplay:10.37,2013-01-14 16:14:00,
2013-01-14 11:20:00,23.9,14.9,30.47,West,270,0.0,0.0,68,0.00,CLR,,0.00,WeatherDisplay:10.37,2013-01-14 16:20:00,
2013-01-14 11:25:00,24.1,15.0,30.47,West,270,0.0,0.0,68,0.00,CLR,,0.00,WeatherDisplay:10.37,2013-01-14 16:25:00,
2013-01-14 11:30:00,24.3,15.2,30.47,West,270,0.0,0.0,68,0.00,CLR,,0.00,WeatherDisplay:10.37,2013-01-14 16:30:00,
2013-01-14 11:35:00,24.4,15.4,30.47,West,270,0.0,0.0,68,0.00,CLR,,0.00,WeatherDisplay:10.37,2013-01-14 16:35:00,
2013-01-14 11:40:00,24.4,15.4,30.46,West,270,0.0,0.0,68,0.00,CLR,,0.00,WeatherDisplay:10.37,2013-01-14 16:40:00,
2013-01-14 11:45:00,24.4,15.4,30.46,West,270,0.0,0.0,68,0.00,CLR,,0.00,WeatherDisplay:10.37,2013-01-14 16:45:00,
2013-01-14 11:50:00,24.4,15.4,30.46,West,270,0.0,0.0,68,0.00,CLR,,0.00,WeatherDisplay:10.37,2013-01-14 16:50:00,
2013-01-14 11:55:00,24.4,15.0,30.45,West,270,0.0,0.0,67,0.00,CLR,,0.00,WeatherDisplay:10.37,2013-01-14 16:55:00,
2013-01-14 12:00:00,24.4,15.4,30.45,West,270,0.0,0.0,68,0.00,CLR,,0.00,WeatherDisplay:10.37,2013-01-14 17:00:00,
2013-01-14 12:05:00,24.4,15.4,30.46,West,270,0.0,0.0,68,0.00,CLR,,0.00,WeatherDisplay:10.37,2013-01-14 17:05:00,
2013-01-14 12:10:00,24.6,15.6,30.46,West,270,0.0,0.0,68,0.00,CLR,,0.00,WeatherDisplay:10.37,2013-01-14 17:10:00,
2013-01-14 12:15:00,24.6,15.6,30.45,West,270,0.0,0.0,68,0.00,CLR,CLR,0.00,WeatherDisplay:10.37,2013-01-14 17:15:00,
2013-01-14 12:20:00,25.2,16.1,30.45,West,270,0.0,0.0,68,0.00,CLR,,0.00,WeatherDisplay:10.37,2013-01-14 17:20:00,
2013-01-14 12:25:00,25.3,15.9,30.45,West,270,0.0,0.0,67,0.00,CLR,CLR,0.00,WeatherDisplay:10.37,2013-01-14 17:25:00,
2013-01-14 12:30:00,25.2,15.4,30.45,West,270,0.0,0.0,66,0.00,CLR,CLR,0.00,WeatherDisplay:10.37,2013-01-14 17:30:00,
2013-01-14 12:35:00,25.2,15.0,30.45,West,270,0.0,0.0,65,0.00,CLR,CLR,0.00,WeatherDisplay:10.37,2013-01-14 17:35:00,
2013-01-14 12:40:00,25.2,15.0,30.45,West,270,0.0,0.0,65,0.00,CLR,CLR,0.00,WeatherDisplay:10.37,2013-01-14 17:40:00,
2013-01-14 12:45:00,25.0,14.9,30.45,West,270,0.0,0.0,65,0.00,CLR,CLR,0.00,WeatherDisplay:10.37,2013-01-14 17:45:00,
2013-01-14 12:50:00,25.2,15.1,30.45,West,270,0.0,0.0,65,0.00,CLR,CLR,0.00,WeatherDisplay:10.37,2013-01-14 17:50:00,
2013-01-14 12:55:00,25.5,15.4,30.45,West,270,0.0,0.0,65,0.00,CLR,CLR,0.00,WeatherDisplay:10.37,2013-01-14 17:55:00,
2013-01-14 13:00:00,25.5,15.4,30.45,West,270,0.0,0.0,65,0.00,CLR,,0.00,WeatherDisplay:10.37,2013-01-14 18:00:00,
2013-01-14 13:05:00,25.5,15.0,30.46,West,270,0.0,0.0,64,0.00,CLR,,0.00,WeatherDisplay:10.37,2013-01-14 18:05:00,
2013-01-14 13:10:00,25.5,15.4,30.46,West,270,0.0,0.0,65,0.00,CLR,,0.00,WeatherDisplay:10.37,2013-01-14 18:10:00,
2013-01-14 13:15:00,25.3,14.9,30.45,West,270,0.0,0.0,64,0.00,CLR,,0.00,WeatherDisplay:10.37,2013-01-14 18:15:00,
2013-01-14 13:20:00,25.0,14.2,30.45,West,270,0.0,0.0,63,0.00,CLR,,0.00,WeatherDisplay:10.37,2013-01-14 18:20:00,
2013-01-14 13:25:00,25.0,14.2,30.46,West,270,0.0,0.0,63,0.00,CLR,,0.00,WeatherDisplay:10.37,2013-01-14 18:25:00,
2013-01-14 13:30:00,25.2,14.7,30.45,West,270,0.0,0.0,64,0.00,CLR,,0.00,WeatherDisplay:10.37,2013-01-14 18:30:00,
2013-01-14 13:35:00,25.7,15.2,30.46,West,270,0.0,0.0,64,0.00,CLR,,0.00,WeatherDisplay:10.37,2013-01-14 18:35:00,
2013-01-14 13:40:00,25.9,15.4,30.46,West,270,0.0,0.0,64,0.00,CLR,,0.00,WeatherDisplay:10.37,2013-01-14 18:40:00,
2013-01-14 13:45:00,25.7,15.2,30.46,West,270,0.0,0.0,64,0.00,CLR,,0.00,WeatherDisplay:10.37,2013-01-14 18:45:00,
2013-01-14 13:50:00,25.5,15.0,30.46,West,270,0.0,0.0,64,0.00,CLR,,0.00,WeatherDisplay:10.37,2013-01-14 18:50:00,
2013-01-14 13:55:00,25.5,14.7,30.47,West,270,0.0,0.0,63,0.00,CLR,,0.00,WeatherDisplay:10.37,2013-01-14 18:55:00,
2013-01-14 14:00:00,25.5,14.7,30.47,West,270,0.0,0.0,63,0.00,CLR,,0.00,WeatherDisplay:10.37,2013-01-14 19:00:00,
2013-01-14 14:05:00,25.2,14.3,30.48,West,270,0.0,0.0,63,0.00,CLR,,0.00,WeatherDisplay:10.37,2013-01-14 19:05:00,
2013-01-14 14:10:00,25.3,14.5,30.47,West,270,0.0,0.0,63,0.00,CLR,,0.00,WeatherDisplay:10.37,2013-01-14 19:10:00,
2013-01-14 14:15:00,25.3,14.5,30.47,West,270,0.0,0.0,63,0.00,CLR,,0.00,WeatherDisplay:10.37,2013-01-14 19:15:00,
2013-01-14 14:20:00,25.5,14.7,30.47,West,270,0.0,0.0,63,0.00,CLR,,0.00,WeatherDisplay:10.37,2013-01-14 19:20:00,
2013-01-14 14:25:00,25.9,15.0,30.48,West,270,0.0,0.0,63,0.00,CLR,,0.00,WeatherDisplay:10.37,2013-01-14 19:25:00,
2013-01-14 14:30:00,25.7,14.8,30.48,West,270,0.0,0.0,63,0.00,CLR,,0.00,WeatherDisplay:10.37,2013-01-14 19:30:00,
2013-01-14 14:35:00,25.7,14.8,30.48,West,270,0.0,0.0,63,0.00,CLR,,0.00,WeatherDisplay:10.37,2013-01-14 19:35:00,
2013-01-14 14:40:00,25.3,14.1,30.48,West,270,0.0,0.0,62,0.00,CLR,,0.00,WeatherDisplay:10.37,2013-01-14 19:40:00,
2013-01-14 14:45:00,25.3,14.1,30.48,West,270,0.0,0.0,62,0.00,CLR,,0.00,WeatherDisplay:10.37,2013-01-14 19:45:00,
2013-01-14 14:50:00,25.2,14.0,30.49,West,270,0.0,0.0,62,0.00,CLR,,0.00,WeatherDisplay:10.37,2013-01-14 19:50:00,
2013-01-14 14:55:00,25.0,13.8,30.48,West,270,0.0,0.0,62,0.00,CLR,,0.00,WeatherDisplay:10.37,2013-01-14 19:55:00,
2013-01-14 15:00:00,24.8,14.0,30.49,West,270,0.0,0.0,63,0.00,CLR,,0.00,WeatherDisplay:10.37,2013-01-14 20:00:00,
2013-01-14 15:05:00,25.0,14.2,30.48,West,270,0.0,0.0,63,0.00,CLR,,0.00,WeatherDisplay:10.37,2013-01-14 20:05:00,
2013-01-14 15:10:00,25.0,14.5,30.48,West,270,0.0,0.0,64,0.00,CLR,,0.00,WeatherDisplay:10.37,2013-01-14 20:10:00,
2013-01-14 15:15:00,25.2,14.7,30.48,West,270,0.0,0.0,64,0.00,CLR,,0.00,WeatherDisplay:10.37,2013-01-14 20:15:00,
2013-01-14 15:20:00,25.2,14.7,30.49,West,270,0.0,0.0,64,0.00,CLR,,0.00,WeatherDisplay:10.37,2013-01-14 20:20:00,
2013-01-14 15:25:00,25.3,14.5,30.50,West,270,0.0,0.0,63,0.00,CLR,,0.00,WeatherDisplay:10.37,2013-01-14 20:25:00,
2013-01-14 15:30:00,25.3,14.5,30.50,West,270,0.0,0.0,63,0.00,CLR,,0.00,WeatherDisplay:10.37,2013-01-14 20:30:00,
2013-01-14 15:35:00,25.3,14.5,30.50,West,270,0.0,0.0,63,0.00,CLR,,0.00,WeatherDisplay:10.37,2013-01-14 20:35:00,
2013-01-14 15:40:00,25.3,14.5,30.50,West,270,0.0,0.0,63,0.00,CLR,,0.00,WeatherDisplay:10.37,2013-01-14 20:40:00,
2013-01-14 15:45:00,25.3,14.5,30.50,West,270,0.0,0.0,63,0.00,CLR,,0.00,WeatherDisplay:10.37,2013-01-14 20:45:00,
2013-01-14 15:50:00,25.5,14.7,30.49,West,270,0.0,0.0,63,0.00,CLR,,0.00,WeatherDisplay:10.37,2013-01-14 20:50:00,
2013-01-14 15:55:00,25.9,15.0,30.49,West,270,0.0,0.0,63,0.00,CLR,,0.00,WeatherDisplay:10.37,2013-01-14 20:55:00,
2013-01-14 16:00:00,26.2,15.3,30.49,West,270,0.0,0.0,63,0.00,CLR,,0.00,WeatherDisplay:10.37,2013-01-14 21:00:00,
2013-01-14 16:05:00,26.8,15.5,30.49,West,270,0.0,0.0,62,0.00,CLR,,0.00,WeatherDisplay:10.37,2013-01-14 21:05:00,
2013-01-14 16:10:00,26.6,15.3,30.48,West,270,0.0,0.0,62,0.00,CLR,,0.00,WeatherDisplay:10.37,2013-01-14 21:10:00,
2013-01-14 16:15:00,26.8,15.5,30.49,West,270,0.0,0.0,62,0.00,CLR,,0.00,WeatherDisplay:10.37,2013-01-14 21:15:00,
2013-01-14 16:20:00,26.6,14.9,30.50,West,270,0.0,0.0,61,0.00,CLR,,0.00,WeatherDisplay:10.37,2013-01-14 21:20:00,
2013-01-14 16:25:00,26.1,14.4,30.50,West,270,0.0,0.0,61,0.00,CLR,,0.00,WeatherDisplay:10.37,2013-01-14 21:25:00,
2013-01-14 16:30:00,26.1,14.4,30.50,West,270,0.0,0.0,61,0.00,CLR,,0.00,WeatherDisplay:10.37,2013-01-14 21:30:00,
2013-01-14 16:35:00,25.9,14.3,30.51,West,270,0.0,0.0,61,0.00,CLR,,0.00,WeatherDisplay:10.37,2013-01-14 21:35:00,
2013-01-14 16:40:00,25.7,14.1,30.50,West,270,0.0,0.0,61,0.00,CLR,,0.00,WeatherDisplay:10.37,2013-01-14 21:40:00,
2013-01-14 16:45:00,25.5,14.3,30.50,West,270,0.0,0.0,62,0.00,CLR,,0.00,WeatherDisplay:10.37,2013-01-14 21:45:00,
2013-01-14 16:50:00,25.5,14.3,30.50,West,270,0.0,0.0,62,0.00,CLR,,0.00,WeatherDisplay:10.37,2013-01-14 21:50:00,
2013-01-14 16:55:00,25.5,14.3,30.51,West,270,0.0,0.0,62,0.00,CLR,,0.00,WeatherDisplay:10.37,2013-01-14 21:55:00,
2013-01-14 17:00:00,25.7,14.8,30.50,West,270,0.0,0.0,63,0.00,CLR,,0.00,WeatherDisplay:10.37,2013-01-14 22:00:00,
2013-01-14 17:05:00,25.7,14.8,30.50,West,270,0.0,0.0,63,0.00,CLR,,0.00,WeatherDisplay:10.37,2013-01-14 22:05:00,
2013-01-14 17:10:00,26.4,15.9,30.50,West,270,0.0,0.0,64,0.00,CLR,,0.00,WeatherDisplay:10.37,2013-01-14 22:10:00,
2013-01-14 17:15:00,26.6,15.7,30.50,West,270,0.0,0.0,63,0.00,CLR,,0.00,WeatherDisplay:10.37,2013-01-14 22:15:00,
2013-01-14 17:20:00,26.6,15.7,30.51,West,270,0.0,0.0,63,0.00,CLR,,0.00,WeatherDisplay:10.37,2013-01-14 22:20:00,
2013-01-14 17:25:00,26.1,15.2,30.51,West,270,0.0,0.0,63,0.00,CLR,,0.00,WeatherDisplay:10.37,2013-01-14 22:25:00,
2013-01-14 17:30:00,26.2,15.7,30.50,West,270,0.0,0.0,64,0.00,CLR,,0.00,WeatherDisplay:10.37,2013-01-14 22:30:00,
2013-01-14 17:35:00,26.6,15.7,30.50,West,270,0.0,0.0,63,0.00,CLR,,0.00,WeatherDisplay:10.37,2013-01-14 22:35:00,
2013-01-14 17:40:00,26.4,15.5,30.50,West,270,0.0,0.0,63,0.00,CLR,,0.00,WeatherDisplay:10.37,2013-01-14 22:40:00,
2013-01-14 17:45:00,26.2,15.3,30.50,West,270,0.0,0.0,63,0.00,CLR,,0.00,WeatherDisplay:10.37,2013-01-14 22:45:00,
2013-01-14 17:50:00,25.9,14.6,30.51,West,270,0.0,0.0,62,0.00,CLR,,0.00,WeatherDisplay:10.37,2013-01-14 22:50:00,
2013-01-14 17:55:00,25.7,14.5,30.50,West,270,0.0,0.0,62,0.00,CLR,,0.00,WeatherDisplay:10.37,2013-01-14 22:55:00,
2013-01-14 18:00:00,25.5,14.3,30.50,West,270,0.0,0.0,62,0.00,CLR,,0.00,WeatherDisplay:10.37,2013-01-14 23:00:00,
2013-01-14 18:05:00,25.3,14.1,30.51,West,270,0.0,0.0,62,0.00,CLR,,0.00,WeatherDisplay:10.37,2013-01-14 23:05:00,
2013-01-14 18:10:00,25.2,14.0,30.50,West,270,0.0,0.0,62,0.00,CLR,,0.00,WeatherDisplay:10.37,2013-01-14 23:10:00,
2013-01-14 18:15:00,25.0,13.8,30.50,West,270,0.0,0.0,62,0.00,CLR,,0.00,WeatherDisplay:10.37,2013-01-14 23:15:00,
2013-01-14 18:20:00,25.0,13.8,30.50,West,270,0.0,0.0,62,0.00,CLR,,0.00,WeatherDisplay:10.37,2013-01-14 23:20:00,
2013-01-14 18:25:00,25.0,13.8,30.50,West,270,0.0,0.0,62,0.00,CLR,,0.00,WeatherDisplay:10.37,2013-01-14 23:25:00,
2013-01-14 18:30:00,25.2,14.0,30.50,West,270,0.0,0.0,62,0.00,CLR,,0.00,WeatherDisplay:10.37,2013-01-14 23:30:00,
2013-01-14 18:35:00,26.1,15.5,30.50,West,270,0.0,0.0,64,0.00,CLR,,0.00,WeatherDisplay:10.37,2013-01-14 23:35:00,
2013-01-14 18:40:00,26.4,15.9,30.50,West,270,0.0,0.0,64,0.00,CLR,,0.00,WeatherDisplay:10.37,2013-01-14 23:40:00,
2013-01-14 18:45:00,26.4,15.5,30.49,West,270,0.0,0.0,63,0.00,CLR,,0.00,WeatherDisplay:10.37,2013-01-14 23:45:00,
2013-01-14 18:50:00,26.6,15.3,30.48,West,270,0.0,0.0,62,0.00,CLR,,0.00,WeatherDisplay:10.37,2013-01-14 23:50:00,
2013-01-14 18:55:00,26.6,15.3,30.48,West,270,0.0,0.0,62,0.00,CLR,,0.00,WeatherDisplay:10.37,2013-01-14 23:55:00,
2013-01-14 19:00:00,26.4,15.5,30.48,West,270,0.0,0.0,63,0.00,CLR,,0.00,WeatherDisplay:10.37,2013-01-15 00:00:00,
2013-01-14 19:05:00,25.7,14.5,30.47,West,270,0.0,0.0,62,0.00,CLR,,0.00,WeatherDisplay:10.37,2013-01-15 00:05:00,
2013-01-14 19:10:00,25.3,13.8,30.47,West,270,0.0,0.0,61,0.00,CLR,,0.00,WeatherDisplay:10.37,2013-01-15 00:10:00,
2013-01-14 19:15:00,25.5,14.3,30.46,West,270,0.0,0.0,62,0.00,CLR,,0.00,WeatherDisplay:10.37,2013-01-15 00:15:00,
2013-01-14 19:20:00,25.3,14.1,30.46,West,270,0.0,0.0,62,0.00,CLR,,0.00,WeatherDisplay:10.37,2013-01-15 00:20:00,
2013-01-14 19:25:00,25.5,14.3,30.46,West,270,0.0,0.0,62,0.00,CLR,,0.00,WeatherDisplay:10.37,2013-01-15 00:25:00,
2013-01-14 19:30:00,25.5,14.3,30.45,West,270,0.0,0.0,62,0.00,CLR,,0.00,WeatherDisplay:10.37,2013-01-15 00:30:00,
2013-01-14 19:35:00,25.2,14.0,30.45,West,270,0.0,0.0,62,0.00,CLR,,0.00,WeatherDisplay:10.37,2013-01-15 00:35:00,
2013-01-14 19:40:00,26.4,15.9,30.45,West,270,0.0,0.0,64,0.00,CLR,,0.00,WeatherDisplay:10.37,2013-01-15 00:40:00,
2013-01-14 19:45:00,27.1,16.6,30.44,West,270,0.0,0.0,64,0.00,CLR,,0.00,WeatherDisplay:10.37,2013-01-15 00:45:00,
2013-01-14 19:50:00,27.5,16.9,30.44,West,270,0.0,0.0,64,0.00,CLR,,0.00,WeatherDisplay:10.37,2013-01-15 00:50:00,
2013-01-14 19:55:00,27.7,17.1,30.44,West,270,0.0,0.0,64,0.00,CLR,,0.00,WeatherDisplay:10.37,2013-01-15 00:55:00,
2013-01-14 20:00:00,27.1,15.5,30.45,West,270,0.0,0.0,61,0.00,CLR,,0.00,WeatherDisplay:10.37,2013-01-15 01:00:00,
2013-01-14 20:05:00,27.3,16.0,30.45,West,270,0.0,0.0,62,0.00,CLR,,0.00,WeatherDisplay:10.37,2013-01-15 01:05:00,
2013-01-14 20:10:00,27.5,16.5,30.45,West,270,0.0,0.0,63,0.00,CLR,,0.00,WeatherDisplay:10.37,2013-01-15 01:10:00,
2013-01-14 20:15:00,27.5,16.5,30.45,West,270,0.0,0.0,63,0.00,CLR,,0.00,WeatherDisplay:10.37,2013-01-15 01:15:00,
2013-01-14 20:20:00,27.1,15.8,30.44,West,270,0.0,0.0,62,0.00,CLR,,0.00,WeatherDisplay:10.37,2013-01-15 01:20:00,
2013-01-14 20:25:00,26.8,15.1,30.44,West,270,0.0,0.0,61,0.00,CLR,,0.00,WeatherDisplay:10.37,2013-01-15 01:25:00,
2013-01-14 20:30:00,26.6,15.3,30.44,West,270,0.0,0.0,62,0.00,CLR,,0.00,WeatherDisplay:10.37,2013-01-15 01:30:00,
2013-01-14 20:35:00,26.2,15.0,30.44,West,270,0.0,0.0,62,0.00,CLR,,0.00,WeatherDisplay:10.37,2013-01-15 01:35:00,
2013-01-14 20:40:00,25.9,14.6,30.44,West,270,0.0,0.0,62,0.00,CLR,,0.00,WeatherDisplay:10.37,2013-01-15 01:40:00,
2013-01-14 20:45:00,25.7,14.5,30.44,West,270,0.0,0.0,62,0.00,CLR,,0.00,WeatherDisplay:10.37,2013-01-15 01:45:00,
2013-01-14 20:50:00,25.5,14.7,30.44,West,270,0.0,0.0,63,0.00,CLR,,0.00,WeatherDisplay:10.37,2013-01-15 01:50:00,
2013-01-14 20:55:00,25.3,14.5,30.45,West,270,0.0,0.0,63,0.00,CLR,,0.00,WeatherDisplay:10.37,2013-01-15 01:55:00,
2013-01-14 21:00:00,25.2,14.3,30.45,West,270,0.0,0.0,63,0.00,CLR,,0.00,WeatherDisplay:10.37,2013-01-15 02:00:00,
2013-01-14 21:05:00,25.9,15.7,30.45,West,270,0.0,0.0,65,0.00,CLR,,0.00,WeatherDisplay:10.37,2013-01-15 02:05:00,
2013-01-14 21:10:00,26.2,16.8,30.45,West,270,0.0,0.0,67,0.00,CLR,,0.00,WeatherDisplay:10.37,2013-01-15 02:10:00,
2013-01-14 21:16:00,25.3,15.2,30.44,West,270,0.0,0.0,65,0.00,CLR,,0.00,WeatherDisplay:10.37,2013-01-15 02:16:00,
2013-01-14 21:21:00,25.5,15.7,30.44,West,270,0.0,0.0,66,0.00,CLR,,0.00,WeatherDisplay:10.37,2013-01-15 02:21:00,
2013-01-14 21:26:00,26.6,17.5,30.43,West,270,0.0,0.0,68,0.00,CLR,,0.00,WeatherDisplay:10.37,2013-01-15 02:26:00,
2013-01-14 21:31:00,27.9,19.7,30.42,West,270,0.0,0.0,71,0.00,CLR,,0.00,WeatherDisplay:10.37,2013-01-15 02:31:00,
2013-01-14 21:36:00,28.9,22.3,30.42,West,270,0.0,0.0,76,0.00,CLR,,0.00,WeatherDisplay:10.37,2013-01-15 02:36:00,
2013-01-14 21:41:00,29.7,23.0,30.42,West,270,0.0,0.0,76,0.00,CLR,,0.00,WeatherDisplay:10.37,2013-01-15 02:41:00,
2013-01-14 21:46:00,30.0,23.4,30.41,West,270,0.0,0.0,76,0.00,CLR,,0.00,WeatherDisplay:10.37,2013-01-15 02:46:00,
2013-01-14 21:51:00,30.7,24.1,30.41,West,270,0.0,0.0,76,0.00,CLR,,0.00,WeatherDisplay:10.37,2013-01-15 02:51:00,
2013-01-14 21:56:00,29.8,22.6,30.40,West,270,0.0,0.0,74,0.00,CLR,,0.00,WeatherDisplay:10.37,2013-01-15 02:56:00,
2013-01-14 22:01:00,29.7,22.4,30.40,West,270,0.0,0.0,74,0.00,CLR,,0.00,WeatherDisplay:10.37,2013-01-15 03:01:00,
2013-01-14 22:06:00,28.8,20.9,30.40,West,270,0.0,0.0,72,0.00,CLR,,0.00,WeatherDisplay:10.37,2013-01-15 03:06:00,
2013-01-14 22:11:00,28.9,21.4,30.40,West,270,0.0,0.0,73,0.00,CLR,,0.00,WeatherDisplay:10.37,2013-01-15 03:11:00,
2013-01-14 22:16:00,28.9,21.7,30.40,West,270,0.0,0.0,74,0.00,CLR,,0.00,WeatherDisplay:10.37,2013-01-15 03:16:00,
2013-01-14 22:21:00,29.1,21.9,30.39,West,270,0.0,0.0,74,0.00,CLR,,0.00,WeatherDisplay:10.37,2013-01-15 03:21:00,
2013-01-14 22:26:00,28.4,20.8,30.39,West,270,0.0,0.0,73,0.00,CLR,,0.00,WeatherDisplay:10.37,2013-01-15 03:26:00,
2013-01-14 22:31:00,28.4,21.2,30.39,West,270,0.0,0.0,74,0.00,CLR,,0.00,WeatherDisplay:10.37,2013-01-15 03:31:00,
2013-01-14 22:36:00,27.7,18.5,30.39,West,270,0.0,0.0,68,0.00,CLR,,0.00,WeatherDisplay:10.37,2013-01-15 03:36:00,
2013-01-14 22:41:00,27.3,18.1,30.38,West,270,0.0,0.0,68,0.00,CLR,,0.00,WeatherDisplay:10.37,2013-01-15 03:41:00,
2013-01-14 22:46:00,27.5,18.7,30.38,West,270,0.0,0.0,69,0.00,CLR,,0.00,WeatherDisplay:10.37,2013-01-15 03:46:00,
2013-01-14 22:51:00,27.5,18.7,30.38,West,270,0.0,0.0,69,0.00,CLR,,0.00,WeatherDisplay:10.37,2013-01-15 03:51:00,
2013-01-14 22:56:00,27.0,17.8,30.38,West,270,0.0,0.0,68,0.00,CLR,,0.00,WeatherDisplay:10.37,2013-01-15 03:56:00,
2013-01-14 23:01:00,26.4,17.6,30.37,West,270,0.0,0.0,69,0.00,CLR,,0.00,WeatherDisplay:10.37,2013-01-15 04:01:00,
2013-01-14 23:06:00,26.4,17.6,30.38,West,270,0.0,0.0,69,0.00,CLR,,0.00,WeatherDisplay:10.37,2013-01-15 04:06:00,
2013-01-14 23:11:00,26.6,17.8,30.38,West,270,0.0,0.0,69,0.00,CLR,,0.00,WeatherDisplay:10.37,2013-01-15 04:11:00,
2013-01-14 23:16:00,26.2,17.8,30.39,West,270,0.0,0.0,70,0.00,CLR,,0.00,WeatherDisplay:10.37,2013-01-15 04:16:00,
2013-01-14 23:21:00,25.9,17.4,30.39,West,270,0.0,0.0,70,0.00,CLR,,0.00,WeatherDisplay:10.37,2013-01-15 04:21:00,
2013-01-14 23:26:00,26.4,18.6,30.40,West,270,0.0,0.0,72,0.00,CLR,,0.00,WeatherDisplay:10.37,2013-01-15 04:26:00,
2013-01-14 23:31:00,26.2,18.4,30.40,West,270,0.0,0.0,72,0.00,CLR,,0.00,WeatherDisplay:10.37,2013-01-15 04:31:00,
2013-01-14 23:36:00,26.1,18.3,30.40,West,270,0.0,0.0,72,0.00,CLR,,0.00,WeatherDisplay:10.37,2013-01-15 04:36:00,
2013-01-14 23:41:00,25.9,17.8,30.41,West,270,0.0,0.0,71,0.00,CLR,,0.00,WeatherDisplay:10.37,2013-01-15 04:41:00,
2013-01-14 23:46:00,26.1,18.3,30.41,West,270,0.0,0.0,72,0.00,CLR,,0.00,WeatherDisplay:10.37,2013-01-15 04:46:00,
2013-01-14 23:51:00,26.2,18.4,30.41,West,270,0.0,0.0,72,0.00,CLR,,0.00,WeatherDisplay:10.37,2013-01-15 04:51:00,
2013-01-14 23:56:00,26.2,18.4,30.41,West,270,0.0,0.0,72,0.00,CLR,,0.00,WeatherDisplay:10.37,2013-01-15 04:56:00,